createdAt,value
2018-09-08T00:01:59.823Z,14.70
2018-09-08T00:04:30.568Z,14.60
2018-09-08T00:07:06.379Z,14.40
2018-09-08T00:09:37.530Z,14.30
2018-09-08T00:12:09.872Z,14.10
2018-09-08T00:14:37.345Z,14.10
2018-09-08T00:17:10.871Z,14.20
2018-09-08T00:19:44.541Z,14.30
2018-09-08T00:22:18.095Z,14.30
2018-09-08T00:24:53.693Z,14.40
2018-09-08T00:27:46.871Z,14.40
2018-09-08T00:30:17.452Z,14.50
2018-09-08T00:32:48.002Z,14.50
2018-09-08T00:35:19.248Z,14.50
2018-09-08T00:37:56.944Z,14.50
2018-09-08T00:40:25.174Z,14.40
2018-09-08T00:42:53.185Z,14.40
2018-09-08T00:45:27.062Z,14.30
2018-09-08T00:47:55.216Z,14.20
2018-09-08T00:50:23.295Z,14.10
2018-09-08T00:52:51.422Z,13.90
2018-09-08T00:55:19.536Z,13.90
2018-09-08T00:57:47.593Z,13.90
2018-09-08T01:00:15.794Z,13.90
2018-09-08T01:02:43.888Z,14.00
2018-09-08T01:05:12.035Z,14.00
2018-09-08T01:07:40.129Z,14.00
2018-09-08T01:10:12.093Z,14.00
2018-09-08T01:12:40.151Z,14.10
2018-09-08T01:15:08.314Z,14.00
2018-09-08T01:17:36.420Z,14.00
2018-09-08T01:20:04.648Z,13.90
2018-09-08T01:22:32.899Z,13.70
2018-09-08T01:25:00.919Z,13.60
2018-09-08T01:27:29.088Z,13.40
2018-09-08T01:29:57.125Z,13.30
2018-09-08T01:32:25.227Z,13.20
2018-09-08T01:34:53.413Z,13.10
2018-09-08T01:37:21.588Z,13.00
2018-09-08T01:39:49.729Z,13.00
2018-09-08T01:42:17.816Z,13.00
2018-09-08T01:44:46.086Z,12.90
2018-09-08T01:47:14.204Z,12.90
2018-09-08T01:49:42.267Z,12.90
2018-09-08T01:52:10.320Z,12.80
2018-09-08T01:54:38.499Z,12.80
2018-09-08T01:57:06.904Z,12.80
2018-09-08T01:59:34.938Z,12.60
2018-09-08T02:02:03.163Z,12.50
2018-09-08T02:04:31.214Z,12.40
2018-09-08T02:06:59.388Z,12.50
2018-09-08T02:09:27.469Z,12.40
2018-09-08T02:11:55.511Z,12.40
2018-09-08T02:14:23.731Z,12.40
2018-09-08T02:16:51.784Z,12.50
2018-09-08T02:19:19.971Z,12.60
2018-09-08T02:21:48.112Z,12.90
2018-09-08T02:24:16.219Z,12.90
2018-09-08T02:26:44.375Z,13.00
2018-09-08T02:29:12.484Z,13.00
2018-09-08T02:31:40.545Z,13.10
2018-09-08T02:34:22.213Z,13.10
2018-09-08T02:36:50.421Z,13.10
2018-09-08T02:39:18.479Z,13.10
2018-09-08T02:41:46.660Z,13.00
2018-09-08T02:44:14.720Z,12.90
2018-09-08T02:46:57.627Z,12.90
2018-09-08T02:50:41.528Z,12.80
2018-09-08T02:53:18.885Z,12.80
2018-09-08T02:55:56.330Z,12.80
2018-09-08T02:58:25.026Z,12.80
2018-09-08T03:00:53.744Z,12.80
2018-09-08T03:03:28.097Z,12.90
2018-09-08T03:06:04.099Z,12.80
2018-09-08T03:08:34.352Z,12.70
2018-09-08T03:11:04.223Z,12.70
2018-09-08T03:13:34.788Z,12.70
2018-09-08T03:16:05.041Z,12.70
2018-09-08T03:18:34.050Z,12.60
2018-09-08T03:21:03.926Z,12.60
2018-09-08T03:23:33.120Z,12.50
2018-09-08T03:26:01.693Z,12.40
2018-09-08T03:28:28.591Z,12.30
2018-09-08T03:30:55.293Z,12.20
2018-09-08T03:33:22.181Z,12.10
2018-09-08T03:35:48.971Z,12.00
2018-09-08T03:38:15.735Z,11.90
2018-09-08T03:40:42.491Z,11.90
2018-09-08T03:43:09.313Z,11.90
2018-09-08T03:45:36.079Z,11.80
2018-09-08T03:48:02.809Z,11.70
2018-09-08T03:50:29.561Z,11.60
2018-09-08T03:52:56.420Z,11.50
2018-09-08T03:55:23.233Z,11.50
2018-09-08T03:57:50.103Z,11.40
2018-09-08T04:00:16.833Z,11.30
2018-09-08T04:02:44.929Z,11.20
2018-09-08T04:05:13.053Z,11.10
2018-09-08T04:07:41.153Z,11.10
2018-09-08T04:10:09.117Z,11.20
2018-09-08T04:12:37.209Z,11.10
2018-09-08T04:15:05.292Z,11.10
2018-09-08T04:17:33.326Z,11.20
2018-09-08T04:20:02.273Z,11.20
2018-09-08T04:22:39.206Z,11.30
2018-09-08T04:25:17.909Z,11.20
2018-09-08T04:27:49.422Z,11.20
2018-09-08T04:30:17.571Z,11.10
2018-09-08T04:32:45.638Z,11.20
2018-09-08T04:35:13.720Z,11.20
2018-09-08T04:37:41.879Z,11.20
2018-09-08T04:40:10.068Z,11.20
2018-09-08T04:42:41.047Z,11.30
2018-09-08T04:45:11.647Z,11.40
2018-09-08T04:47:42.268Z,11.30
2018-09-08T04:50:10.428Z,11.30
2018-09-08T04:52:41.026Z,11.30
2018-09-08T04:55:12.264Z,11.30
2018-09-08T04:57:43.021Z,11.40
2018-09-08T05:00:13.408Z,11.30
2018-09-08T05:02:44.299Z,11.40
2018-09-08T05:05:14.424Z,11.50
2018-09-08T05:07:44.512Z,11.70
2018-09-08T05:10:12.657Z,11.90
2018-09-08T05:12:40.800Z,12.10
2018-09-08T05:15:09.032Z,12.10
2018-09-08T05:17:37.056Z,12.20
2018-09-08T05:20:05.835Z,12.20
2018-09-08T05:22:33.916Z,12.30
2018-09-08T05:25:02.124Z,12.30
2018-09-08T05:27:30.492Z,12.40
2018-09-08T05:29:58.585Z,12.50
2018-09-08T05:32:26.612Z,12.70
2018-09-08T05:34:54.817Z,12.80
2018-09-08T05:37:22.870Z,13.00
2018-09-08T05:39:51.084Z,13.10
2018-09-08T05:42:19.144Z,13.30
2018-09-08T05:44:47.404Z,13.40
2018-09-08T05:47:15.652Z,13.50
2018-09-08T05:49:43.874Z,13.50
2018-09-08T05:52:11.955Z,13.50
2018-09-08T05:54:40.105Z,13.40
2018-09-08T05:57:08.132Z,13.40
2018-09-08T05:59:36.253Z,13.50
2018-09-08T06:02:04.652Z,13.70
2018-09-08T06:04:32.837Z,14.00
2018-09-08T06:07:02.739Z,14.30
2018-09-08T06:09:32.054Z,14.40
2018-09-08T06:12:00.612Z,14.50
2018-09-08T06:14:29.844Z,14.50
2018-09-08T06:16:57.867Z,14.60
2018-09-08T06:19:26.075Z,14.80
2018-09-08T06:21:54.124Z,14.90
2018-09-08T06:24:22.435Z,15.00
2018-09-08T06:26:50.496Z,15.10
2018-09-08T06:29:18.562Z,15.10
2018-09-08T06:31:46.979Z,15.10
2018-09-08T06:34:15.406Z,15.10
2018-09-08T06:36:43.669Z,15.20
2018-09-08T06:39:13.041Z,15.30
2018-09-08T06:41:41.295Z,15.40
2018-09-08T06:44:09.356Z,15.60
2018-09-08T06:46:37.419Z,15.70
2018-09-08T06:49:05.762Z,15.80
2018-09-08T06:51:34.672Z,16.00
2018-09-08T06:54:03.089Z,16.10
2018-09-08T06:56:31.132Z,16.30
2018-09-08T06:58:59.743Z,16.30
2018-09-08T07:01:28.023Z,16.40
2018-09-08T07:03:56.305Z,16.20
2018-09-08T07:06:24.555Z,16.20
2018-09-08T07:08:52.760Z,16.10
2018-09-08T07:11:20.839Z,16.00
2018-09-08T07:13:49.301Z,15.90
2018-09-08T07:16:17.476Z,15.80
2018-09-08T07:18:45.845Z,15.60
2018-09-08T07:21:13.960Z,15.60
2018-09-08T07:23:41.984Z,15.50
2018-09-08T07:26:10.203Z,15.60
2018-09-08T07:28:38.265Z,15.80
2018-09-08T07:31:06.559Z,16.20
2018-09-08T07:33:34.717Z,16.50
2018-09-08T07:36:02.976Z,17.00
2018-09-08T07:38:31.076Z,17.20
2018-09-08T07:40:59.135Z,17.30
2018-09-08T07:43:27.208Z,17.40
2018-09-08T07:45:55.271Z,17.40
2018-09-08T07:48:23.337Z,17.60
2018-09-08T07:50:51.485Z,17.90
2018-09-08T07:53:19.553Z,18.20
2018-09-08T07:55:47.705Z,18.30
2018-09-08T07:58:15.856Z,18.70
2018-09-08T08:00:43.920Z,19.00
2018-09-08T08:03:11.964Z,19.30
2018-09-08T08:05:39.961Z,19.50
2018-09-08T08:08:08.160Z,19.90
2018-09-08T08:10:36.213Z,19.70
2018-09-08T08:13:04.425Z,20.40
2018-09-08T08:15:32.456Z,20.40
2018-09-08T08:18:00.665Z,20.30
2018-09-08T08:20:28.723Z,20.10
2018-09-08T08:22:56.867Z,19.50
2018-09-08T08:25:25.083Z,19.10
2018-09-08T08:27:53.148Z,19.00
2018-09-08T08:30:21.208Z,18.50
2018-09-08T08:32:49.272Z,18.00
2018-09-08T08:35:17.359Z,17.70
2018-09-08T08:37:45.445Z,17.70
2018-09-08T08:40:13.508Z,18.00
2018-09-08T08:42:41.564Z,18.40
2018-09-08T08:45:09.652Z,18.60
2018-09-08T08:47:37.716Z,18.90
2018-09-08T08:50:16.962Z,18.80
2018-09-08T08:52:56.180Z,18.80
2018-09-08T08:55:24.264Z,19.20
2018-09-08T08:57:52.384Z,19.60
2018-09-08T09:00:20.397Z,19.80
2018-09-08T09:02:48.609Z,20.10
2018-09-08T09:05:16.673Z,20.10
2018-09-08T09:07:44.750Z,20.20
2018-09-08T09:10:12.805Z,20.10
2018-09-08T09:12:40.903Z,20.00
2018-09-08T09:15:09.421Z,19.80
2018-09-08T09:17:37.252Z,19.70
2018-09-08T09:20:16.636Z,19.90
2018-09-08T09:22:55.833Z,19.70
2018-09-08T09:25:23.850Z,19.80
2018-09-08T09:27:52.324Z,19.50
2018-09-08T09:30:20.867Z,18.90
2018-09-08T09:32:49.032Z,18.90
2018-09-08T09:35:18.449Z,18.70
2018-09-08T09:37:46.612Z,18.60
2018-09-08T09:40:16.125Z,18.70
2018-09-08T09:42:44.195Z,18.70
2018-09-08T09:45:12.448Z,19.00
2018-09-08T09:47:40.637Z,19.70
2018-09-08T09:50:10.053Z,20.30
2018-09-08T09:52:38.355Z,20.20
2018-09-08T09:55:06.597Z,20.30
2018-09-08T09:57:34.864Z,20.20
2018-09-08T10:00:03.064Z,19.70
2018-09-08T10:02:38.467Z,19.40
2018-09-08T10:05:14.557Z,19.30
2018-09-08T10:07:42.824Z,19.60
2018-09-08T10:10:12.783Z,19.70
2018-09-08T10:12:41.020Z,19.90
2018-09-08T10:15:09.541Z,20.00
2018-09-08T10:17:38.330Z,20.00
2018-09-08T10:20:08.337Z,20.20
2018-09-08T10:22:36.376Z,20.20
2018-09-08T10:25:04.784Z,20.10
2018-09-08T10:27:32.920Z,20.30
2018-09-08T10:30:01.685Z,20.30
2018-09-08T10:32:29.415Z,20.30
2018-09-08T10:34:57.464Z,20.50
2018-09-08T10:37:25.767Z,20.50
2018-09-08T10:39:53.837Z,20.50
2018-09-08T10:42:22.015Z,20.50
2018-09-08T10:44:50.165Z,20.60
2018-09-08T10:47:18.185Z,20.50
2018-09-08T10:49:46.488Z,20.40
2018-09-08T10:52:48.116Z,20.40
2018-09-08T10:55:16.143Z,20.50
2018-09-08T10:57:44.234Z,20.50
2018-09-08T11:00:12.792Z,20.60
2018-09-08T11:02:41.037Z,20.80
2018-09-08T11:05:09.176Z,21.00
2018-09-08T11:07:37.225Z,21.20
2018-09-08T11:10:05.925Z,21.50
2018-09-08T11:12:34.188Z,21.70
2018-09-08T11:15:02.376Z,22.00
2018-09-08T11:17:30.449Z,21.90
2018-09-08T11:19:58.942Z,21.40
2018-09-08T11:22:27.103Z,21.10
2018-09-08T11:24:55.292Z,21.50
2018-09-08T11:27:23.471Z,22.20
2018-09-08T11:29:51.641Z,22.90
2018-09-08T11:32:19.839Z,23.10
2018-09-08T11:34:47.988Z,22.70
2018-09-08T11:37:16.164Z,23.00
2018-09-08T11:39:44.319Z,22.50
2018-09-08T11:42:12.431Z,22.70
2018-09-08T11:44:39.891Z,22.50
2018-09-08T11:47:07.230Z,22.60
2018-09-08T11:49:34.608Z,22.70
2018-09-08T11:52:01.927Z,22.60
2018-09-08T11:54:29.315Z,22.30
2018-09-08T11:56:56.940Z,22.60
2018-09-08T11:59:24.319Z,23.00
2018-09-08T12:01:51.671Z,23.20
2018-09-08T12:04:18.990Z,23.40
2018-09-08T12:06:46.379Z,23.00
2018-09-08T12:09:13.768Z,23.10
2018-09-08T12:11:41.107Z,22.90
2018-09-08T12:14:08.759Z,22.80
2018-09-08T12:16:36.143Z,22.90
2018-09-08T12:19:03.605Z,23.10
2018-09-08T12:21:30.913Z,23.40
2018-09-08T12:23:58.506Z,23.20
2018-09-08T12:26:25.844Z,22.90
2018-09-08T12:28:55.234Z,22.80
2018-09-08T12:31:22.578Z,22.70
2018-09-08T12:33:49.863Z,23.30
2018-09-08T12:36:17.194Z,23.60
2018-09-08T12:38:44.590Z,23.60
2018-09-08T12:41:11.907Z,23.60
2018-09-08T12:43:39.291Z,23.40
2018-09-08T12:46:06.627Z,23.50
2018-09-08T12:48:34.048Z,23.60
2018-09-08T12:51:01.345Z,23.80
2018-09-08T12:53:28.750Z,23.50
2018-09-08T12:55:56.053Z,23.20
2018-09-08T12:58:23.432Z,23.10
2018-09-08T13:00:50.767Z,22.90
2018-09-08T13:03:18.176Z,22.70
2018-09-08T13:05:45.478Z,23.10
2018-09-08T13:08:12.855Z,23.20
2018-09-08T13:10:40.183Z,23.20
2018-09-08T13:13:07.590Z,23.60
2018-09-08T13:15:34.898Z,23.60
2018-09-08T13:18:02.427Z,23.70
2018-09-08T13:20:29.719Z,23.90
2018-09-08T13:22:57.236Z,23.30
2018-09-08T13:25:24.543Z,22.90
2018-09-08T13:27:51.952Z,23.10
2018-09-08T13:30:19.268Z,23.30
2018-09-08T13:32:46.601Z,23.40
2018-09-08T13:35:14.009Z,23.60
2018-09-08T13:37:41.319Z,23.70
2018-09-08T13:40:08.801Z,23.90
2018-09-08T13:42:36.140Z,23.90
2018-09-08T13:45:03.670Z,24.20
2018-09-08T13:47:31.060Z,24.40
2018-09-08T13:49:58.447Z,24.10
2018-09-08T13:52:25.792Z,23.50
2018-09-08T13:54:53.139Z,23.00
2018-09-08T13:57:20.593Z,22.70
2018-09-08T13:59:47.952Z,22.40
2018-09-08T14:02:15.291Z,22.40
2018-09-08T14:04:42.666Z,22.30
2018-09-08T14:07:10.003Z,22.20
2018-09-08T14:09:37.378Z,22.20
2018-09-08T14:12:04.735Z,22.60
2018-09-08T14:14:32.079Z,22.60
2018-09-08T14:16:59.575Z,22.50
2018-09-08T14:19:26.903Z,22.20
2018-09-08T14:21:54.363Z,22.30
2018-09-08T14:24:21.722Z,22.40
2018-09-08T14:26:49.079Z,21.80
2018-09-08T14:29:16.430Z,21.70
2018-09-08T14:31:43.789Z,21.70
2018-09-08T14:34:11.184Z,21.80
2018-09-08T14:36:38.648Z,21.90
2018-09-08T14:39:07.096Z,22.10
2018-09-08T14:41:34.532Z,22.20
2018-09-08T14:44:01.926Z,22.20
2018-09-08T14:46:29.335Z,22.30
2018-09-08T14:48:56.723Z,22.30
2018-09-08T14:51:24.059Z,22.10
2018-09-08T14:53:51.432Z,22.10
2018-09-08T14:56:18.764Z,22.10
2018-09-08T14:58:46.142Z,21.70
2018-09-08T15:01:13.500Z,21.50
2018-09-08T15:03:40.856Z,21.40
2018-09-08T15:06:08.310Z,21.50
2018-09-08T15:08:35.776Z,21.50
2018-09-08T15:11:03.127Z,21.60
2018-09-08T15:13:30.480Z,21.90
2018-09-08T15:15:58.014Z,22.20
2018-09-08T15:18:25.380Z,22.50
2018-09-08T15:20:52.760Z,22.60
2018-09-08T15:23:20.096Z,22.70
2018-09-08T15:25:47.467Z,22.60
2018-09-08T15:28:14.804Z,22.60
2018-09-08T15:30:42.191Z,22.50
2018-09-08T15:33:09.529Z,22.60
2018-09-08T15:35:36.902Z,22.20
2018-09-08T15:38:04.228Z,22.10
2018-09-08T15:40:31.606Z,22.10
2018-09-08T15:42:58.954Z,22.10
2018-09-08T15:45:26.279Z,22.20
2018-09-08T15:47:53.659Z,22.40
2018-09-08T15:50:21.143Z,22.40
2018-09-08T15:52:48.510Z,22.20
2018-09-08T15:55:15.932Z,22.20
2018-09-08T15:57:43.329Z,22.10
2018-09-08T16:00:10.638Z,22.00
2018-09-08T16:02:38.026Z,21.90
2018-09-08T16:05:05.356Z,21.90
2018-09-08T16:07:32.733Z,21.80
2018-09-08T16:10:00.071Z,22.00
2018-09-08T16:12:27.409Z,22.10
2018-09-08T16:14:54.781Z,22.00
2018-09-08T16:17:22.163Z,22.20
2018-09-08T16:19:49.492Z,22.20
2018-09-08T16:22:16.873Z,22.20
2018-09-08T16:24:44.239Z,22.20
2018-09-08T16:27:11.559Z,22.10
2018-09-08T16:29:38.999Z,21.90
2018-09-08T16:32:06.275Z,21.60
2018-09-08T16:34:33.673Z,21.20
2018-09-08T16:37:01.012Z,20.90
2018-09-08T16:39:28.372Z,20.50
2018-09-08T16:41:55.715Z,20.20
2018-09-08T16:44:23.080Z,20.20
2018-09-08T16:46:50.640Z,20.00
2018-09-08T16:49:18.004Z,19.90
2018-09-08T16:51:45.434Z,19.80
2018-09-08T16:54:12.814Z,19.70
2018-09-08T16:56:40.170Z,19.60
2018-09-08T16:59:07.499Z,19.60
2018-09-08T17:01:34.878Z,19.50
2018-09-08T17:04:02.217Z,19.30
2018-09-08T17:06:29.623Z,19.20
2018-09-08T17:08:56.932Z,19.10
2018-09-08T17:11:24.411Z,18.90
2018-09-08T17:13:51.748Z,18.70
2018-09-08T17:16:19.123Z,18.60
2018-09-08T17:18:46.455Z,18.40
2018-09-08T17:21:13.833Z,18.30
2018-09-08T17:23:41.163Z,18.20
2018-09-08T17:26:08.560Z,18.10
2018-09-08T17:28:36.152Z,17.80
2018-09-08T17:31:03.571Z,17.70
2018-09-08T17:33:33.402Z,17.60
2018-09-08T17:36:00.749Z,17.50
2018-09-08T17:38:28.369Z,17.30
2018-09-08T17:41:00.881Z,17.20
2018-09-08T17:43:33.851Z,17.00
2018-09-08T17:46:07.796Z,16.80
2018-09-08T17:48:40.608Z,16.70
2018-09-08T17:51:12.241Z,16.50
2018-09-08T17:53:47.281Z,16.40
2018-09-08T17:56:17.719Z,16.20
2018-09-08T17:58:49.234Z,16.00
2018-09-08T18:01:21.148Z,15.70
2018-09-08T18:03:53.698Z,15.50
2018-09-08T18:06:24.912Z,15.40
2018-09-08T18:08:56.087Z,15.30
2018-09-08T18:11:29.572Z,15.20
2018-09-08T18:13:56.912Z,15.10
2018-09-08T18:16:24.287Z,15.00
2018-09-08T18:18:51.736Z,14.90
2018-09-08T18:21:19.245Z,14.70
2018-09-08T18:23:46.545Z,14.60
2018-09-08T18:26:13.906Z,14.60
2018-09-08T18:28:41.281Z,14.60
2018-09-08T18:31:08.634Z,14.50
2018-09-08T18:33:35.987Z,14.40
2018-09-08T18:36:03.456Z,14.30
2018-09-08T18:38:30.800Z,14.20
2018-09-08T18:40:58.276Z,14.10
2018-09-08T18:43:25.623Z,14.00
2018-09-08T18:45:53.069Z,14.00
2018-09-08T18:48:20.470Z,14.00
2018-09-08T18:50:47.763Z,14.10
2018-09-08T18:53:15.166Z,14.10
2018-09-08T18:55:42.679Z,14.10
2018-09-08T18:58:10.370Z,14.10
2018-09-08T19:00:37.805Z,13.90
2018-09-08T19:03:05.291Z,13.80
2018-09-08T19:05:32.622Z,13.80
2018-09-08T19:08:00.098Z,13.70
2018-09-08T19:10:31.864Z,13.60
2018-09-08T19:12:59.331Z,13.50
2018-09-08T19:15:26.655Z,13.50
2018-09-08T19:17:54.031Z,13.50
2018-09-08T19:20:26.891Z,13.50
2018-09-08T19:22:54.378Z,13.50
2018-09-08T19:25:21.747Z,13.60
2018-09-08T19:27:49.067Z,13.50
2018-09-08T19:30:20.196Z,13.40
2018-09-08T19:32:50.784Z,13.40
2018-09-08T19:35:26.027Z,13.30
2018-09-08T19:37:57.054Z,13.20
2018-09-08T19:40:33.150Z,13.10
2018-09-08T19:43:04.492Z,13.00
2018-09-08T19:45:34.593Z,13.00
2018-09-08T19:48:06.187Z,12.80
2018-09-08T19:50:36.658Z,12.70
2018-09-08T19:53:14.628Z,12.70
2018-09-08T19:55:45.415Z,12.70
2018-09-08T19:58:20.611Z,12.80
2018-09-08T20:00:51.275Z,12.80
2018-09-08T20:03:28.164Z,12.80
2018-09-08T20:05:55.506Z,12.80
2018-09-08T20:08:22.870Z,12.80
2018-09-08T20:10:50.232Z,12.80
2018-09-08T20:13:23.635Z,12.70
2018-09-08T20:15:50.964Z,12.70
2018-09-08T20:18:18.322Z,12.70
2018-09-08T20:20:54.889Z,12.70
2018-09-08T20:23:22.373Z,12.60
2018-09-08T20:25:49.698Z,12.50
2018-09-08T20:28:17.142Z,12.40
2018-09-08T20:30:44.449Z,12.40
2018-09-08T20:33:11.861Z,12.40
2018-09-08T20:35:39.476Z,12.50
2018-09-08T20:38:06.797Z,12.60
2018-09-08T20:40:34.177Z,12.50
2018-09-08T20:43:01.535Z,12.50
2018-09-08T20:45:28.947Z,12.50
2018-09-08T20:47:56.360Z,12.40
2018-09-08T20:50:23.748Z,12.40
2018-09-08T20:52:51.253Z,12.40
2018-09-08T20:55:18.638Z,12.30
2018-09-08T20:57:46.054Z,12.20
2018-09-08T21:00:13.482Z,12.00
2018-09-08T21:02:40.976Z,11.80
2018-09-08T21:05:08.372Z,11.70
2018-09-08T21:07:35.723Z,11.50
2018-09-08T21:10:03.172Z,11.50
2018-09-08T21:12:30.533Z,11.50
2018-09-08T21:14:57.860Z,11.40
2018-09-08T21:17:25.339Z,11.50
2018-09-08T21:19:52.683Z,11.50
2018-09-08T21:22:20.185Z,11.40
2018-09-08T21:24:47.527Z,11.40
2018-09-08T21:27:14.977Z,11.40
2018-09-08T21:29:42.525Z,11.40
2018-09-08T21:32:09.900Z,11.40
2018-09-08T21:34:45.678Z,11.40
2018-09-08T21:37:13.117Z,11.50
2018-09-08T21:39:40.571Z,11.60
2018-09-08T21:42:07.893Z,11.60
2018-09-08T21:44:35.270Z,11.60
2018-09-08T21:47:05.910Z,11.50
2018-09-08T21:49:29.985Z,11.60
2018-09-08T21:51:57.375Z,11.60
2018-09-08T21:54:24.723Z,11.50
2018-09-08T21:56:52.095Z,11.50
2018-09-08T21:59:19.505Z,11.50
2018-09-08T22:01:47.054Z,11.50
2018-09-08T22:04:14.436Z,11.40
2018-09-08T22:06:41.764Z,11.20
2018-09-08T22:09:09.459Z,11.10
2018-09-08T22:11:36.797Z,11.00
2018-09-08T22:14:04.258Z,11.00
2018-09-08T22:16:31.700Z,11.00
2018-09-08T22:18:59.084Z,11.20
2018-09-08T22:21:26.427Z,11.20
2018-09-08T22:23:53.761Z,11.20
2018-09-08T22:26:21.312Z,11.20
2018-09-08T22:28:48.598Z,11.00
2018-09-08T22:31:15.980Z,10.90
2018-09-08T22:33:43.331Z,10.70
2018-09-08T22:36:10.735Z,10.60
2018-09-08T22:38:38.045Z,10.60
2018-09-08T22:41:05.448Z,10.70
2018-09-08T22:43:32.945Z,10.70
2018-09-08T22:46:00.302Z,10.70
2018-09-08T22:48:27.737Z,10.80
2018-09-08T22:50:55.131Z,10.80
2018-09-08T22:53:22.551Z,10.70
2018-09-08T22:55:49.931Z,10.60
2018-09-08T22:58:17.271Z,10.60
2018-09-08T23:00:44.641Z,10.70
2018-09-08T23:03:12.006Z,10.80
2018-09-08T23:05:39.390Z,10.80
2018-09-08T23:08:06.719Z,10.70
2018-09-08T23:10:34.066Z,10.70
2018-09-08T23:13:01.540Z,10.60
2018-09-08T23:15:28.871Z,10.60
2018-09-08T23:17:56.261Z,10.50
2018-09-08T23:20:23.691Z,10.40
2018-09-08T23:22:51.386Z,10.50
2018-09-08T23:25:18.821Z,10.50
2018-09-08T23:27:46.151Z,10.60
2018-09-08T23:30:13.562Z,10.60
2018-09-08T23:32:40.954Z,10.60
2018-09-08T23:35:08.463Z,10.60
2018-09-08T23:37:35.802Z,10.50
2018-09-08T23:40:03.334Z,10.40
2018-09-08T23:42:30.848Z,10.20
2018-09-08T23:44:58.159Z,9.90
2018-09-08T23:47:25.746Z,9.80
2018-09-08T23:49:53.392Z,9.80
2018-09-08T23:52:20.763Z,9.70
2018-09-08T23:54:48.506Z,9.80
2018-09-08T23:57:15.892Z,9.70
2018-09-08T23:59:43.216Z,9.70
